sensor_id;sensor_type;location;lat;lon;timestamp;temperature;humidity
38118;DHT22;23928;47.562;7.508;2022-12-24T00:01:59;12.20;99.90
38118;DHT22;23928;47.562;7.508;2022-12-24T00:04:25;12.20;99.90
38118;DHT22;23928;47.562;7.508;2022-12-24T00:06:50;12.10;99.90
38118;DHT22;23928;47.562;7.508;2022-12-24T00:09:16;12.20;99.90
38118;DHT22;23928;47.562;7.508;2022-12-24T00:11:42;12.10;99.90
38118;DHT22;23928;47.562;7.508;2022-12-24T00:14:07;12.00;99.90
38118;DHT22;23928;47.562;7.508;2022-12-24T00:16:33;12.00;99.90
38118;DHT22;23928;47.562;7.508;2022-12-24T00:18:58;11.90;99.90
38118;DHT22;23928;47.562;7.508;2022-12-24T00:21:24;11.90;99.90
38118;DHT22;23928;47.562;7.508;2022-12-24T00:23:50;11.90;99.90
38118;DHT22;23928;47.562;7.508;2022-12-24T00:26:15;11.80;99.90
38118;DHT22;23928;47.562;7.508;2022-12-24T00:28:41;11.70;99.90
38118;DHT22;23928;47.562;7.508;2022-12-24T00:31:12;12.00;99.90
38118;DHT22;23928;47.562;7.508;2022-12-24T00:33:38;11.90;99.90
38118;DHT22;23928;47.562;7.508;2022-12-24T00:36:05;11.80;99.90
38118;DHT22;23928;47.562;7.508;2022-12-24T00:38:31;12.00;99.90
38118;DHT22;23928;47.562;7.508;2022-12-24T00:41:00;12.10;99.90
38118;DHT22;23928;47.562;7.508;2022-12-24T00:43:27;12.00;99.90
38118;DHT22;23928;47.562;7.508;2022-12-24T00:45:54;12.10;99.90
38118;DHT22;23928;47.562;7.508;2022-12-24T00:48:19;12.10;99.90
38118;DHT22;23928;47.562;7.508;2022-12-24T00:50:45;11.90;99.90
38118;DHT22;23928;47.562;7.508;2022-12-24T00:53:10;12.10;99.90
38118;DHT22;23928;47.562;7.508;2022-12-24T00:55:36;12.10;99.90
38118;DHT22;23928;47.562;7.508;2022-12-24T00:58:02;11.90;99.90
38118;DHT22;23928;47.562;7.508;2022-12-24T01:00:27;11.90;99.90
38118;DHT22;23928;47.562;7.508;2022-12-24T01:02:53;11.90;99.90
38118;DHT22;23928;47.562;7.508;2022-12-24T01:05:18;11.80;99.90
38118;DHT22;23928;47.562;7.508;2022-12-24T01:07:46;11.60;99.90
38118;DHT22;23928;47.562;7.508;2022-12-24T01:10:13;11.50;99.90
38118;DHT22;23928;47.562;7.508;2022-12-24T01:12:39;11.40;99.90
38118;DHT22;23928;47.562;7.508;2022-12-24T01:15:06;11.50;99.90
38118;DHT22;23928;47.562;7.508;2022-12-24T01:17:33;11.70;99.90
38118;DHT22;23928;47.562;7.508;2022-12-24T01:19:59;11.70;99.90
38118;DHT22;23928;47.562;7.508;2022-12-24T01:22:25;11.50;99.90
38118;DHT22;23928;47.562;7.508;2022-12-24T01:24:51;11.60;99.90
38118;DHT22;23928;47.562;7.508;2022-12-24T01:27:16;11.50;99.90
38118;DHT22;23928;47.562;7.508;2022-12-24T01:29:42;11.40;99.90
38118;DHT22;23928;47.562;7.508;2022-12-24T01:32:07;11.60;99.90
38118;DHT22;23928;47.562;7.508;2022-12-24T01:34:33;11.50;99.90
38118;DHT22;23928;47.562;7.508;2022-12-24T01:36:59;11.30;99.90
38118;DHT22;23928;47.562;7.508;2022-12-24T01:39:24;11.40;99.90
38118;DHT22;23928;47.562;7.508;2022-12-24T01:41:50;11.60;99.90
38118;DHT22;23928;47.562;7.508;2022-12-24T01:44:39;11.50;99.90
38118;DHT22;23928;47.562;7.508;2022-12-24T01:47:15;11.40;99.90
38118;DHT22;23928;47.562;7.508;2022-12-24T01:49:49;11.40;99.90
38118;DHT22;23928;47.562;7.508;2022-12-24T01:52:29;11.10;99.90
38118;DHT22;23928;47.562;7.508;2022-12-24T01:55:08;11.20;99.90
38118;DHT22;23928;47.562;7.508;2022-12-24T01:57:38;11.20;99.90
38118;DHT22;23928;47.562;7.508;2022-12-24T02:00:11;11.00;99.90
38118;DHT22;23928;47.562;7.508;2022-12-24T02:02:39;11.00;99.90
38118;DHT22;23928;47.562;7.508;2022-12-24T02:05:20;11.10;99.90
38118;DHT22;23928;47.562;7.508;2022-12-24T02:07:47;11.00;99.90
38118;DHT22;23928;47.562;7.508;2022-12-24T02:10:13;11.00;99.90
38118;DHT22;23928;47.562;7.508;2022-12-24T02:12:40;11.20;99.90
38118;DHT22;23928;47.562;7.508;2022-12-24T02:15:08;11.20;99.90
38118;DHT22;23928;47.562;7.508;2022-12-24T02:25:43;11.10;99.90
38118;DHT22;23928;47.562;7.508;2022-12-24T02:31:26;11.20;99.90
38118;DHT22;23928;47.562;7.508;2022-12-24T02:34:05;11.10;99.90
38118;DHT22;23928;47.562;7.508;2022-12-24T02:36:35;11.00;99.90
38118;DHT22;23928;47.562;7.508;2022-12-24T02:39:07;11.00;99.90
38118;DHT22;23928;47.562;7.508;2022-12-24T02:41:39;11.00;99.90
38118;DHT22;23928;47.562;7.508;2022-12-24T02:44:28;10.90;99.90
38118;DHT22;23928;47.562;7.508;2022-12-24T02:46:56;10.90;99.90
38118;DHT22;23928;47.562;7.508;2022-12-24T02:49:23;10.90;99.90
38118;DHT22;23928;47.562;7.508;2022-12-24T02:51:49;10.80;99.90
38118;DHT22;23928;47.562;7.508;2022-12-24T02:54:15;10.70;99.90
38118;DHT22;23928;47.562;7.508;2022-12-24T02:57:10;10.80;99.90
38118;DHT22;23928;47.562;7.508;2022-12-24T03:00:05;10.80;99.90
38118;DHT22;23928;47.562;7.508;2022-12-24T03:08:15;10.80;99.90
38118;DHT22;23928;47.562;7.508;2022-12-24T03:10:55;10.80;99.90
38118;DHT22;23928;47.562;7.508;2022-12-24T03:13:23;10.80;99.90
38118;DHT22;23928;47.562;7.508;2022-12-24T03:15:50;10.90;99.90
38118;DHT22;23928;47.562;7.508;2022-12-24T03:18:19;10.80;99.90
38118;DHT22;23928;47.562;7.508;2022-12-24T03:23:17;10.80;99.90
38118;DHT22;23928;47.562;7.508;2022-12-24T03:25:44;10.90;99.90
38118;DHT22;23928;47.562;7.508;2022-12-24T03:28:12;10.90;99.90
38118;DHT22;23928;47.562;7.508;2022-12-24T03:30:42;10.90;99.90
38118;DHT22;23928;47.562;7.508;2022-12-24T03:33:10;10.80;99.90
38118;DHT22;23928;47.562;7.508;2022-12-24T03:35:35;10.80;99.90
38118;DHT22;23928;47.562;7.508;2022-12-24T03:38:01;10.80;99.90
38118;DHT22;23928;47.562;7.508;2022-12-24T03:40:27;10.70;99.90
38118;DHT22;23928;47.562;7.508;2022-12-24T03:42:52;10.60;99.90
38118;DHT22;23928;47.562;7.508;2022-12-24T03:45:18;10.70;99.90
38118;DHT22;23928;47.562;7.508;2022-12-24T03:47:44;10.70;99.90
38118;DHT22;23928;47.562;7.508;2022-12-24T03:50:10;10.80;99.90
38118;DHT22;23928;47.562;7.508;2022-12-24T03:52:35;10.70;99.90
38118;DHT22;23928;47.562;7.508;2022-12-24T03:55:01;10.70;99.90
38118;DHT22;23928;47.562;7.508;2022-12-24T03:57:27;10.70;99.90
38118;DHT22;23928;47.562;7.508;2022-12-24T03:59:52;10.70;99.90
38118;DHT22;23928;47.562;7.508;2022-12-24T04:02:18;10.70;99.90
38118;DHT22;23928;47.562;7.508;2022-12-24T04:04:43;10.70;99.90
38118;DHT22;23928;47.562;7.508;2022-12-24T04:07:09;10.60;99.90
38118;DHT22;23928;47.562;7.508;2022-12-24T04:09:35;10.70;99.90
38118;DHT22;23928;47.562;7.508;2022-12-24T04:12:01;10.70;99.90
38118;DHT22;23928;47.562;7.508;2022-12-24T04:14:26;10.70;99.90
38118;DHT22;23928;47.562;7.508;2022-12-24T04:16:52;10.70;99.90
38118;DHT22;23928;47.562;7.508;2022-12-24T04:19:17;10.70;99.90
38118;DHT22;23928;47.562;7.508;2022-12-24T04:21:43;10.70;99.90
38118;DHT22;23928;47.562;7.508;2022-12-24T04:24:09;10.70;99.90
38118;DHT22;23928;47.562;7.508;2022-12-24T04:26:34;10.60;99.90
38118;DHT22;23928;47.562;7.508;2022-12-24T04:29:00;10.70;99.90
38118;DHT22;23928;47.562;7.508;2022-12-24T04:31:25;10.70;99.90
38118;DHT22;23928;47.562;7.508;2022-12-24T04:33:51;10.50;99.90
38118;DHT22;23928;47.562;7.508;2022-12-24T04:36:19;10.60;99.90
38118;DHT22;23928;47.562;7.508;2022-12-24T04:38:45;10.70;99.90
38118;DHT22;23928;47.562;7.508;2022-12-24T04:41:15;10.60;99.90
38118;DHT22;23928;47.562;7.508;2022-12-24T04:43:41;10.60;99.90
38118;DHT22;23928;47.562;7.508;2022-12-24T04:46:09;10.60;99.90
38118;DHT22;23928;47.562;7.508;2022-12-24T04:48:36;10.70;99.90
38118;DHT22;23928;47.562;7.508;2022-12-24T04:51:03;10.60;99.90
38118;DHT22;23928;47.562;7.508;2022-12-24T04:53:30;10.60;99.90
38118;DHT22;23928;47.562;7.508;2022-12-24T04:55:56;10.60;99.90
38118;DHT22;23928;47.562;7.508;2022-12-24T04:58:21;10.60;99.90
38118;DHT22;23928;47.562;7.508;2022-12-24T05:00:47;10.60;99.90
38118;DHT22;23928;47.562;7.508;2022-12-24T05:03:13;10.60;99.90
38118;DHT22;23928;47.562;7.508;2022-12-24T05:05:38;10.60;99.90
38118;DHT22;23928;47.562;7.508;2022-12-24T05:08:04;10.60;99.90
38118;DHT22;23928;47.562;7.508;2022-12-24T05:10:30;10.70;99.90
38118;DHT22;23928;47.562;7.508;2022-12-24T05:12:56;10.60;99.90
38118;DHT22;23928;47.562;7.508;2022-12-24T05:15:22;10.50;99.90
38118;DHT22;23928;47.562;7.508;2022-12-24T05:17:47;10.40;99.90
38118;DHT22;23928;47.562;7.508;2022-12-24T05:20:13;10.40;99.90
38118;DHT22;23928;47.562;7.508;2022-12-24T05:22:39;10.40;99.90
38118;DHT22;23928;47.562;7.508;2022-12-24T05:25:23;10.30;99.90
38118;DHT22;23928;47.562;7.508;2022-12-24T05:28:21;10.30;99.90
38118;DHT22;23928;47.562;7.508;2022-12-24T05:30:47;10.30;99.90
38118;DHT22;23928;47.562;7.508;2022-12-24T05:33:13;10.40;99.90
38118;DHT22;23928;47.562;7.508;2022-12-24T05:35:38;10.30;99.90
38118;DHT22;23928;47.562;7.508;2022-12-24T05:38:04;10.30;99.90
38118;DHT22;23928;47.562;7.508;2022-12-24T05:40:29;10.30;99.90
38118;DHT22;23928;47.562;7.508;2022-12-24T05:42:55;10.30;99.90
38118;DHT22;23928;47.562;7.508;2022-12-24T05:45:20;10.20;99.90
38118;DHT22;23928;47.562;7.508;2022-12-24T05:47:46;10.20;99.90
38118;DHT22;23928;47.562;7.508;2022-12-24T05:50:12;10.10;99.90
38118;DHT22;23928;47.562;7.508;2022-12-24T05:52:37;10.20;99.90
38118;DHT22;23928;47.562;7.508;2022-12-24T05:55:03;10.10;99.90
38118;DHT22;23928;47.562;7.508;2022-12-24T05:57:29;10.20;99.90
38118;DHT22;23928;47.562;7.508;2022-12-24T05:59:54;10.20;99.90
38118;DHT22;23928;47.562;7.508;2022-12-24T06:02:20;10.20;99.90
38118;DHT22;23928;47.562;7.508;2022-12-24T06:04:45;10.10;99.90
38118;DHT22;23928;47.562;7.508;2022-12-24T06:07:11;10.20;99.90
38118;DHT22;23928;47.562;7.508;2022-12-24T06:09:37;10.30;99.90
38118;DHT22;23928;47.562;7.508;2022-12-24T06:12:03;10.20;99.90
38118;DHT22;23928;47.562;7.508;2022-12-24T06:14:29;10.30;99.90
38118;DHT22;23928;47.562;7.508;2022-12-24T06:16:55;10.30;99.90
38118;DHT22;23928;47.562;7.508;2022-12-24T06:19:20;10.30;99.90
38118;DHT22;23928;47.562;7.508;2022-12-24T06:21:46;10.20;99.90
38118;DHT22;23928;47.562;7.508;2022-12-24T06:24:11;10.40;99.90
38118;DHT22;23928;47.562;7.508;2022-12-24T06:26:37;10.30;99.90
38118;DHT22;23928;47.562;7.508;2022-12-24T06:29:03;10.30;99.90
38118;DHT22;23928;47.562;7.508;2022-12-24T06:31:28;10.20;99.90
38118;DHT22;23928;47.562;7.508;2022-12-24T06:33:54;10.20;99.90
38118;DHT22;23928;47.562;7.508;2022-12-24T06:36:22;10.20;99.90
38118;DHT22;23928;47.562;7.508;2022-12-24T06:38:48;10.20;99.90
38118;DHT22;23928;47.562;7.508;2022-12-24T06:41:15;10.30;99.90
38118;DHT22;23928;47.562;7.508;2022-12-24T06:43:45;10.10;99.90
38118;DHT22;23928;47.562;7.508;2022-12-24T06:46:12;10.30;99.90
38118;DHT22;23928;47.562;7.508;2022-12-24T06:48:38;10.20;99.90
38118;DHT22;23928;47.562;7.508;2022-12-24T06:51:03;10.20;99.90
38118;DHT22;23928;47.562;7.508;2022-12-24T06:53:30;10.20;99.90
38118;DHT22;23928;47.562;7.508;2022-12-24T06:56:03;10.20;99.90
38118;DHT22;23928;47.562;7.508;2022-12-24T06:58:30;10.20;99.90
38118;DHT22;23928;47.562;7.508;2022-12-24T07:00:55;10.20;99.90
38118;DHT22;23928;47.562;7.508;2022-12-24T07:03:21;10.10;99.90
38118;DHT22;23928;47.562;7.508;2022-12-24T07:05:47;10.20;99.90
38118;DHT22;23928;47.562;7.508;2022-12-24T07:08:12;10.20;99.90
38118;DHT22;23928;47.562;7.508;2022-12-24T07:10:38;10.30;99.90
38118;DHT22;23928;47.562;7.508;2022-12-24T07:13:03;10.20;99.90
38118;DHT22;23928;47.562;7.508;2022-12-24T07:15:29;10.30;99.90
38118;DHT22;23928;47.562;7.508;2022-12-24T07:17:55;10.20;99.90
38118;DHT22;23928;47.562;7.508;2022-12-24T07:20:20;10.30;99.90
38118;DHT22;23928;47.562;7.508;2022-12-24T07:22:46;10.20;99.90
38118;DHT22;23928;47.562;7.508;2022-12-24T07:25:11;10.20;99.90
38118;DHT22;23928;47.562;7.508;2022-12-24T07:27:38;10.30;99.90
38118;DHT22;23928;47.562;7.508;2022-12-24T07:30:04;10.20;99.90
38118;DHT22;23928;47.562;7.508;2022-12-24T07:32:30;10.20;99.90
38118;DHT22;23928;47.562;7.508;2022-12-24T07:34:56;10.20;99.90
38118;DHT22;23928;47.562;7.508;2022-12-24T07:37:21;10.30;99.90
38118;DHT22;23928;47.562;7.508;2022-12-24T07:39:47;10.20;99.90
38118;DHT22;23928;47.562;7.508;2022-12-24T07:42:12;10.10;99.90
38118;DHT22;23928;47.562;7.508;2022-12-24T07:44:38;10.10;99.90
38118;DHT22;23928;47.562;7.508;2022-12-24T07:47:04;10.20;99.90
38118;DHT22;23928;47.562;7.508;2022-12-24T07:49:29;10.30;99.90
38118;DHT22;23928;47.562;7.508;2022-12-24T07:51:55;10.30;99.90
38118;DHT22;23928;47.562;7.508;2022-12-24T07:54:21;10.20;99.90
38118;DHT22;23928;47.562;7.508;2022-12-24T07:56:46;10.40;99.90
38118;DHT22;23928;47.562;7.508;2022-12-24T07:59:12;10.40;99.90
38118;DHT22;23928;47.562;7.508;2022-12-24T08:01:38;10.20;99.90
38118;DHT22;23928;47.562;7.508;2022-12-24T08:04:04;10.30;99.90
38118;DHT22;23928;47.562;7.508;2022-12-24T08:06:30;10.20;99.90
38118;DHT22;23928;47.562;7.508;2022-12-24T08:08:55;10.20;99.90
38118;DHT22;23928;47.562;7.508;2022-12-24T08:11:21;10.30;99.90
38118;DHT22;23928;47.562;7.508;2022-12-24T08:13:46;10.20;99.90
38118;DHT22;23928;47.562;7.508;2022-12-24T08:16:12;10.20;99.90
38118;DHT22;23928;47.562;7.508;2022-12-24T08:18:37;10.20;99.90
38118;DHT22;23928;47.562;7.508;2022-12-24T08:21:06;10.20;99.90
38118;DHT22;23928;47.562;7.508;2022-12-24T08:23:33;10.30;99.90
38118;DHT22;23928;47.562;7.508;2022-12-24T08:25:58;10.30;99.90
38118;DHT22;23928;47.562;7.508;2022-12-24T08:28:24;10.30;99.90
38118;DHT22;23928;47.562;7.508;2022-12-24T08:30:50;10.30;99.90
38118;DHT22;23928;47.562;7.508;2022-12-24T08:33:16;10.10;99.90
38118;DHT22;23928;47.562;7.508;2022-12-24T08:35:47;10.30;99.90
38118;DHT22;23928;47.562;7.508;2022-12-24T08:38:13;10.30;99.90
38118;DHT22;23928;47.562;7.508;2022-12-24T08:40:38;10.30;99.90
38118;DHT22;23928;47.562;7.508;2022-12-24T08:43:04;10.40;99.90
38118;DHT22;23928;47.562;7.508;2022-12-24T08:45:29;10.40;99.90
38118;DHT22;23928;47.562;7.508;2022-12-24T08:47:58;10.40;99.90
38118;DHT22;23928;47.562;7.508;2022-12-24T08:50:24;10.40;99.90
38118;DHT22;23928;47.562;7.508;2022-12-24T08:52:50;10.50;99.90
38118;DHT22;23928;47.562;7.508;2022-12-24T08:55:15;10.40;99.90
38118;DHT22;23928;47.562;7.508;2022-12-24T08:57:41;10.50;99.90
38118;DHT22;23928;47.562;7.508;2022-12-24T09:00:07;10.50;99.90
38118;DHT22;23928;47.562;7.508;2022-12-24T09:02:34;10.50;99.90
38118;DHT22;23928;47.562;7.508;2022-12-24T09:04:59;10.50;99.90
38118;DHT22;23928;47.562;7.508;2022-12-24T09:07:25;10.40;99.90
38118;DHT22;23928;47.562;7.508;2022-12-24T09:09:50;10.50;99.90
38118;DHT22;23928;47.562;7.508;2022-12-24T09:12:16;10.50;99.90
38118;DHT22;23928;47.562;7.508;2022-12-24T09:14:42;10.50;99.90
38118;DHT22;23928;47.562;7.508;2022-12-24T09:17:07;10.50;99.90
38118;DHT22;23928;47.562;7.508;2022-12-24T09:19:33;10.60;99.90
38118;DHT22;23928;47.562;7.508;2022-12-24T09:21:58;10.50;99.90
38118;DHT22;23928;47.562;7.508;2022-12-24T09:24:24;10.60;99.90
38118;DHT22;23928;47.562;7.508;2022-12-24T09:26:50;10.70;99.90
38118;DHT22;23928;47.562;7.508;2022-12-24T09:29:16;10.70;99.90
38118;DHT22;23928;47.562;7.508;2022-12-24T09:31:42;10.70;99.90
38118;DHT22;23928;47.562;7.508;2022-12-24T09:34:08;10.70;99.90
38118;DHT22;23928;47.562;7.508;2022-12-24T09:36:34;10.70;99.90
38118;DHT22;23928;47.562;7.508;2022-12-24T09:38:59;10.70;99.90
38118;DHT22;23928;47.562;7.508;2022-12-24T09:41:56;10.80;99.90
38118;DHT22;23928;47.562;7.508;2022-12-24T09:44:34;10.70;99.90
38118;DHT22;23928;47.562;7.508;2022-12-24T09:47:05;10.70;99.90
38118;DHT22;23928;47.562;7.508;2022-12-24T09:49:42;10.90;99.90
38118;DHT22;23928;47.562;7.508;2022-12-24T09:52:12;10.90;99.90
38118;DHT22;23928;47.562;7.508;2022-12-24T09:54:54;10.90;99.90
38118;DHT22;23928;47.562;7.508;2022-12-24T09:57:30;11.00;99.90
38118;DHT22;23928;47.562;7.508;2022-12-24T09:59:57;11.00;99.90
38118;DHT22;23928;47.562;7.508;2022-12-24T10:02:22;10.90;99.90
38118;DHT22;23928;47.562;7.508;2022-12-24T10:04:48;11.10;99.90
38118;DHT22;23928;47.562;7.508;2022-12-24T10:12:41;11.20;99.90
38118;DHT22;23928;47.562;7.508;2022-12-24T10:15:15;11.40;99.90
38118;DHT22;23928;47.562;7.508;2022-12-24T10:18:15;11.40;99.90
38118;DHT22;23928;47.562;7.508;2022-12-24T10:29:10;11.50;99.90
38118;DHT22;23928;47.562;7.508;2022-12-24T10:34:59;11.70;99.90
38118;DHT22;23928;47.562;7.508;2022-12-24T10:37:28;11.70;99.90
38118;DHT22;23928;47.562;7.508;2022-12-24T10:39:55;11.70;99.90
38118;DHT22;23928;47.562;7.508;2022-12-24T10:42:24;11.80;99.90
38118;DHT22;23928;47.562;7.508;2022-12-24T10:44:55;11.90;99.90
38118;DHT22;23928;47.562;7.508;2022-12-24T10:47:22;11.80;99.90
38118;DHT22;23928;47.562;7.508;2022-12-24T10:50:09;11.80;99.90
38118;DHT22;23928;47.562;7.508;2022-12-24T10:52:38;11.90;99.90
38118;DHT22;23928;47.562;7.508;2022-12-24T10:57:37;12.00;99.90
38118;DHT22;23928;47.562;7.508;2022-12-24T11:00:04;11.90;99.90
38118;DHT22;23928;47.562;7.508;2022-12-24T11:02:36;11.90;99.90
38118;DHT22;23928;47.562;7.508;2022-12-24T11:05:26;11.90;99.90
38118;DHT22;23928;47.562;7.508;2022-12-24T11:08:13;12.00;99.90
38118;DHT22;23928;47.562;7.508;2022-12-24T11:10:53;12.00;99.90
38118;DHT22;23928;47.562;7.508;2022-12-24T11:13:25;12.00;99.90
38118;DHT22;23928;47.562;7.508;2022-12-24T11:18:46;12.00;99.90
38118;DHT22;23928;47.562;7.508;2022-12-24T11:22:01;12.00;99.90
38118;DHT22;23928;47.562;7.508;2022-12-24T11:26:39;12.00;99.90
38118;DHT22;23928;47.562;7.508;2022-12-24T11:29:18;12.00;99.90
38118;DHT22;23928;47.562;7.508;2022-12-24T11:31:45;12.00;99.90
38118;DHT22;23928;47.562;7.508;2022-12-24T11:34:31;12.00;99.90
38118;DHT22;23928;47.562;7.508;2022-12-24T11:39:41;12.00;99.90
38118;DHT22;23928;47.562;7.508;2022-12-24T11:42:27;11.90;99.90
38118;DHT22;23928;47.562;7.508;2022-12-24T11:44:55;12.00;99.90
38118;DHT22;23928;47.562;7.508;2022-12-24T11:47:39;11.90;99.90
38118;DHT22;23928;47.562;7.508;2022-12-24T11:55:49;11.90;99.90
38118;DHT22;23928;47.562;7.508;2022-12-24T11:58:42;11.90;99.90
38118;DHT22;23928;47.562;7.508;2022-12-24T12:03:57;11.80;99.90
38118;DHT22;23928;47.562;7.508;2022-12-24T12:06:38;11.80;99.90
38118;DHT22;23928;47.562;7.508;2022-12-24T12:09:09;11.80;99.90
38118;DHT22;23928;47.562;7.508;2022-12-24T12:11:37;11.80;99.90
38118;DHT22;23928;47.562;7.508;2022-12-24T12:14:05;11.80;99.90
38118;DHT22;23928;47.562;7.508;2022-12-24T12:16:42;11.80;99.90
38118;DHT22;23928;47.562;7.508;2022-12-24T12:22:22;11.80;99.90
38118;DHT22;23928;47.562;7.508;2022-12-24T12:24:51;11.80;99.90
38118;DHT22;23928;47.562;7.508;2022-12-24T12:27:32;11.90;99.90
38118;DHT22;23928;47.562;7.508;2022-12-24T12:30:06;11.90;99.90
38118;DHT22;23928;47.562;7.508;2022-12-24T12:32:52;11.90;99.90
38118;DHT22;23928;47.562;7.508;2022-12-24T12:35:41;11.80;99.90
38118;DHT22;23928;47.562;7.508;2022-12-24T12:38:16;11.80;99.90
38118;DHT22;23928;47.562;7.508;2022-12-24T12:52:11;11.80;99.90
38118;DHT22;23928;47.562;7.508;2022-12-24T12:57:34;11.80;99.90
38118;DHT22;23928;47.562;7.508;2022-12-24T13:00:03;11.80;99.90
38118;DHT22;23928;47.562;7.508;2022-12-24T13:02:54;11.80;99.90
38118;DHT22;23928;47.562;7.508;2022-12-24T13:10:50;11.70;99.90
38118;DHT22;23928;47.562;7.508;2022-12-24T13:21:11;11.60;99.90
38118;DHT22;23928;47.562;7.508;2022-12-24T13:23:38;11.60;99.90
38118;DHT22;23928;47.562;7.508;2022-12-24T13:26:10;11.60;99.90
38118;DHT22;23928;47.562;7.508;2022-12-24T13:28:36;11.50;99.90
38118;DHT22;23928;47.562;7.508;2022-12-24T13:33:51;11.50;99.90
38118;DHT22;23928;47.562;7.508;2022-12-24T13:36:19;11.50;99.90
38118;DHT22;23928;47.562;7.508;2022-12-24T13:44:18;11.50;99.90
38118;DHT22;23928;47.562;7.508;2022-12-24T13:47:03;11.40;99.90
38118;DHT22;23928;47.562;7.508;2022-12-24T13:49:45;11.40;99.90
38118;DHT22;23928;47.562;7.508;2022-12-24T13:52:24;11.40;99.90
38118;DHT22;23928;47.562;7.508;2022-12-24T13:57:32;11.30;99.90
38118;DHT22;23928;47.562;7.508;2022-12-24T14:00:00;11.30;99.90
38118;DHT22;23928;47.562;7.508;2022-12-24T14:02:28;11.30;99.90
38118;DHT22;23928;47.562;7.508;2022-12-24T14:04:59;11.20;99.90
38118;DHT22;23928;47.562;7.508;2022-12-24T14:07:27;11.20;99.90
38118;DHT22;23928;47.562;7.508;2022-12-24T14:09:53;11.20;99.90
38118;DHT22;23928;47.562;7.508;2022-12-24T14:12:45;11.20;99.90
38118;DHT22;23928;47.562;7.508;2022-12-24T14:18:19;11.10;99.90
38118;DHT22;23928;47.562;7.508;2022-12-24T14:20:50;11.10;99.90
38118;DHT22;23928;47.562;7.508;2022-12-24T14:26:16;11.10;99.90
38118;DHT22;23928;47.562;7.508;2022-12-24T14:28:55;10.90;99.90
38118;DHT22;23928;47.562;7.508;2022-12-24T14:31:22;10.80;99.90
38118;DHT22;23928;47.562;7.508;2022-12-24T14:33:47;10.80;99.90
38118;DHT22;23928;47.562;7.508;2022-12-24T14:36:17;10.90;99.90
38118;DHT22;23928;47.562;7.508;2022-12-24T14:38:45;10.70;99.90
38118;DHT22;23928;47.562;7.508;2022-12-24T14:43:51;10.70;99.90
38118;DHT22;23928;47.562;7.508;2022-12-24T14:46:38;10.70;99.90
38118;DHT22;23928;47.562;7.508;2022-12-24T14:51:49;10.80;99.90
38118;DHT22;23928;47.562;7.508;2022-12-24T14:54:32;10.80;99.90
38118;DHT22;23928;47.562;7.508;2022-12-24T15:02:50;10.80;99.90
38118;DHT22;23928;47.562;7.508;2022-12-24T15:05:18;10.80;99.90
38118;DHT22;23928;47.562;7.508;2022-12-24T15:07:59;10.60;99.90
38118;DHT22;23928;47.562;7.508;2022-12-24T15:10:30;10.60;99.90
38118;DHT22;23928;47.562;7.508;2022-12-24T15:13:01;10.70;99.90
38118;DHT22;23928;47.562;7.508;2022-12-24T15:15:28;10.80;99.90
38118;DHT22;23928;47.562;7.508;2022-12-24T15:17:54;10.70;99.90
38118;DHT22;23928;47.562;7.508;2022-12-24T15:20:22;10.60;99.90
38118;DHT22;23928;47.562;7.508;2022-12-24T15:22:51;10.60;99.90
38118;DHT22;23928;47.562;7.508;2022-12-24T15:25:29;10.50;99.90
38118;DHT22;23928;47.562;7.508;2022-12-24T15:27:55;10.40;99.90
38118;DHT22;23928;47.562;7.508;2022-12-24T15:30:23;10.50;99.90
38118;DHT22;23928;47.562;7.508;2022-12-24T15:32:51;10.50;99.90
38118;DHT22;23928;47.562;7.508;2022-12-24T15:38:38;10.50;99.90
38118;DHT22;23928;47.562;7.508;2022-12-24T15:41:26;10.50;99.90
38118;DHT22;23928;47.562;7.508;2022-12-24T15:43:53;10.40;99.90
38118;DHT22;23928;47.562;7.508;2022-12-24T15:46:24;10.40;99.90
38118;DHT22;23928;47.562;7.508;2022-12-24T15:48:52;10.40;99.90
38118;DHT22;23928;47.562;7.508;2022-12-24T15:51:23;10.40;99.90
38118;DHT22;23928;47.562;7.508;2022-12-24T15:54:06;10.50;99.90
38118;DHT22;23928;47.562;7.508;2022-12-24T15:56:37;10.50;99.90
38118;DHT22;23928;47.562;7.508;2022-12-24T15:59:24;10.40;99.90
38118;DHT22;23928;47.562;7.508;2022-12-24T16:01:52;10.40;99.90
38118;DHT22;23928;47.562;7.508;2022-12-24T16:04:25;10.40;99.90
38118;DHT22;23928;47.562;7.508;2022-12-24T16:06:56;10.40;99.90
38118;DHT22;23928;47.562;7.508;2022-12-24T16:12:00;10.30;99.90
38118;DHT22;23928;47.562;7.508;2022-12-24T16:14:26;10.20;99.90
38118;DHT22;23928;47.562;7.508;2022-12-24T16:16:52;10.30;99.90
38118;DHT22;23928;47.562;7.508;2022-12-24T16:19:24;10.30;99.90
38118;DHT22;23928;47.562;7.508;2022-12-24T16:21:58;10.40;99.90
38118;DHT22;23928;47.562;7.508;2022-12-24T16:24:45;10.20;99.90
38118;DHT22;23928;47.562;7.508;2022-12-24T16:27:12;10.10;99.90
38118;DHT22;23928;47.562;7.508;2022-12-24T16:29:38;10.20;99.90
38118;DHT22;23928;47.562;7.508;2022-12-24T16:32:04;10.10;99.90
38118;DHT22;23928;47.562;7.508;2022-12-24T16:34:30;10.20;99.90
38118;DHT22;23928;47.562;7.508;2022-12-24T16:36:57;10.10;99.90
38118;DHT22;23928;47.562;7.508;2022-12-24T16:39:34;10.20;99.90
38118;DHT22;23928;47.562;7.508;2022-12-24T16:42:01;10.20;99.90
38118;DHT22;23928;47.562;7.508;2022-12-24T16:44:46;10.20;99.90
38118;DHT22;23928;47.562;7.508;2022-12-24T16:47:21;10.30;99.90
38118;DHT22;23928;47.562;7.508;2022-12-24T16:49:47;10.40;99.90
38118;DHT22;23928;47.562;7.508;2022-12-24T16:52:21;10.30;99.90
38118;DHT22;23928;47.562;7.508;2022-12-24T16:54:48;10.20;99.90
38118;DHT22;23928;47.562;7.508;2022-12-24T16:57:14;10.20;99.90
38118;DHT22;23928;47.562;7.508;2022-12-24T16:59:40;10.10;99.90
38118;DHT22;23928;47.562;7.508;2022-12-24T17:02:08;10.10;99.90
38118;DHT22;23928;47.562;7.508;2022-12-24T17:04:34;10.10;99.90
38118;DHT22;23928;47.562;7.508;2022-12-24T17:07:00;10.10;99.90
38118;DHT22;23928;47.562;7.508;2022-12-24T17:09:25;10.10;99.90
38118;DHT22;23928;47.562;7.508;2022-12-24T17:11:51;9.90;99.90
38118;DHT22;23928;47.562;7.508;2022-12-24T17:14:17;9.80;99.90
38118;DHT22;23928;47.562;7.508;2022-12-24T17:16:42;9.70;99.90
38118;DHT22;23928;47.562;7.508;2022-12-24T17:19:08;9.80;99.90
38118;DHT22;23928;47.562;7.508;2022-12-24T17:21:34;9.80;99.90
38118;DHT22;23928;47.562;7.508;2022-12-24T17:24:00;9.90;99.90
38118;DHT22;23928;47.562;7.508;2022-12-24T17:26:25;9.90;99.90
38118;DHT22;23928;47.562;7.508;2022-12-24T17:28:55;9.80;99.90
38118;DHT22;23928;47.562;7.508;2022-12-24T17:31:22;9.80;99.90
38118;DHT22;23928;47.562;7.508;2022-12-24T17:33:49;9.80;99.90
38118;DHT22;23928;47.562;7.508;2022-12-24T17:36:15;9.70;99.90
38118;DHT22;23928;47.562;7.508;2022-12-24T17:38:40;9.80;99.90
38118;DHT22;23928;47.562;7.508;2022-12-24T17:41:10;9.70;99.90
38118;DHT22;23928;47.562;7.508;2022-12-24T17:43:37;9.60;99.90
38118;DHT22;23928;47.562;7.508;2022-12-24T17:46:04;9.60;99.90